Observations for GUIDONIA IT-AFB, Italy (LIRG)

LIRG 160755Z 24002KT CAVOK 12/09 Q1020  
LIRG 160655Z VRB02KT CAVOK 10/09 Q1020  
LIRG 160655Z VRB02KT CAVOK 10/09 Q1020 RMK SCT SCT070 MON NE LIB NC VIS MIN 9999 BLU
LIRG 160555Z 02002KT 360V050 CAVOK 10/09 Q1020  
LIRG 160555Z 02002KT 360V050 CAVOK 10/09 Q1020 RMK BKN SCT070 BKN200 MON NE LIBVIS MIN 9999 BLU
LIRG 151755Z 03004KT CAVOK 13/11 Q1021  
LIRG 151755Z 03004KT CAVOK 13/11 Q1021 RMK SKC MON NE LIB NC VIS MIN 9999 BLU
LIRG 151655Z 03005KT CAVOK 13/11 Q1021  
LIRG 151655Z 03005KT CAVOK 13/11 Q1021 RMK SKC MON NE LIB NC VIS MIN 9999 BLU
LIRG 151555Z 34002KT CAVOK 15/10 Q1021  
LIRG 151555Z 34002KT CAVOK 15/10 Q1021 RMK SCT SCT070 MON NE LIB NC VIS MIN 9999 BLU
LIRG 151455Z 28004KT CAVOK 18/09 Q1021  
LIRG 151455Z 28004KT CAVOK 18/09 Q1021 RMK FEW FEW070 MON NE LIB NC VIS MIN 9999 BLU
LIRG 151355Z 27005KT 9999 FEW035 19/10 Q1022
LIRG 151355Z 27005KT 9999 FEW035 19/10 Q1022 RMK SCT SCT200 MON NE LIB NC VIS MIN 9999 BLU
LIRG 151255Z 29005KT 9999 FEW035 19/11 Q1022
LIRG 151255Z 29005KT 9999 FEW035 19/11 Q1022 RMK SCT SCT200 MON NE LIB NC VIS MIN 9999 BLU
LIRG 151155Z 31004KT 230V030 9999 FEW035 19/11 Q1023
LIRG 151155Z 31004KT 230V030 9999 FEW035 19/11 Q1023 RMK SCT MON NE LIB NC VIS MIN 9999 BLU
LIRG 151055Z 28002KT CAVOK 17/09 Q1023  
LIRG 151055Z 28002KT CAVOK 17/09 Q1023 RMK BKN BKN200 MON NE LIB NC VIS MIN 9999 BLU
LIRG 150955Z 25002KT CAVOK 16/10 Q1023  
LIRG 150955Z 25002KT CAVOK 16/10 Q1023 RMK SCT SCT200 MON NE LIB NC VIS MIN 9999 BLU
LIRG 150855Z 25001KT CAVOK 12/10 Q1023  
LIRG 150855Z 25001KT CAVOK 12/10 Q1023 RMK SCT SCT200 MON NE LIB NC VIS MIN 9999 BLU
LIRG 150755Z 32002KT CAVOK 08/07 Q1023  
LIRG 150755Z 32002KT CAVOK 08/07 Q1023 RMK SKC MON NE LIB NC VIS MIN 9999 BLU